Time;durP1;ratioP1;P1;durP2;ratioP2;P2;SDS_P1;SDS_P2;PMS_P1;PMS_P2;Temp;Humidity;BMP_temperature;BMP_pressure;BME280_temperature;BME280_humidity;BME280_pressure;Samples;Min_cycle;Max_cycle;Signal;HPM_P1;HPM_P2
2021/12/15 00:00:40;;;;;;;20.55;10.15;;;8.40;99.90;;;6.84;100.00;102567.47;2568797;30;138174;-41
2021/12/15 00:03:09;;;;;;;16.52;9.20;;;8.40;99.90;;;6.84;100.00;102567.47;2567155;30;136947;-41
2021/12/15 00:05:40;;;;;;;19.08;9.05;;;8.40;99.90;;;6.85;100.00;102569.19;2569182;30;137093;-41
2021/12/15 00:08:11;;;;;;;16.23;8.68;;;8.40;99.90;;;6.81;100.00;102557.78;2568058;30;137276;-41
2021/12/15 00:10:42;;;;;;;14.18;8.40;;;8.40;99.90;;;6.84;100.00;102559.31;2566795;30;138232;-41
2021/12/15 00:13:13;;;;;;;16.45;8.90;;;8.40;99.90;;;6.85;100.00;102558.31;2568198;30;137113;-41
2021/12/15 00:15:42;;;;;;;16.92;8.63;;;8.40;99.90;;;6.84;100.00;102554.78;2568200;30;138281;-41
2021/12/15 00:18:11;;;;;;;16.00;8.88;;;8.40;99.90;;;6.86;100.00;102566.34;2568498;30;138434;-41
2021/12/15 00:20:41;;;;;;;16.90;9.30;;;8.40;99.90;;;6.86;100.00;102557.31;2569562;30;138674;-41
2021/12/15 00:23:09;;;;;;;16.92;8.85;;;8.40;99.90;;;6.87;100.00;102557.19;2567185;30;137420;-41
2021/12/15 00:25:42;;;;;;;15.93;8.35;;;8.40;99.90;;;6.85;100.00;102564.63;2567855;30;137290;-41
2021/12/15 00:28:11;;;;;;;17.13;8.27;;;8.40;99.90;;;6.85;100.00;102563.75;2568761;30;137647;-41
2021/12/15 00:30:39;;;;;;;17.08;8.63;;;8.40;99.90;;;6.80;100.00;102558.78;2569109;30;139038;-41
2021/12/15 00:33:08;;;;;;;15.90;8.65;;;8.40;99.90;;;6.85;100.00;102567.34;2567253;30;138303;-41
2021/12/15 00:35:36;;;;;;;16.42;8.82;;;8.40;99.90;;;6.86;100.00;102565.47;2568993;30;138254;-41
2021/12/15 00:38:06;;;;;;;17.67;9.35;;;8.40;99.90;;;6.90;100.00;102565.03;2568810;30;136985;-41
2021/12/15 00:40:34;;;;;;;15.50;8.43;;;8.50;99.90;;;6.88;100.00;102568.88;2567569;30;138145;-41
2021/12/15 00:43:02;;;;;;;14.57;9.23;;;8.50;99.90;;;6.89;100.00;102576.03;2568539;30;139007;-41
2021/12/15 00:45:30;;;;;;;16.85;8.63;;;8.50;99.90;;;6.86;100.00;102568.16;2566757;30;139668;-41
2021/12/15 00:47:58;;;;;;;15.75;8.50;;;8.50;99.90;;;6.83;100.00;102569.34;2567340;30;138263;-41
2021/12/15 00:50:32;;;;;;;13.70;8.35;;;8.40;99.90;;;6.83;100.00;102577.47;2567463;30;138970;-41
2021/12/15 00:53:01;;;;;;;15.95;8.30;;;8.40;99.90;;;6.81;100.00;102567.75;2568012;30;139122;-41
2021/12/15 00:55:31;;;;;;;18.33;9.32;;;8.40;99.90;;;6.79;100.00;102572.47;2567968;30;138627;-41
2021/12/15 00:58:01;;;;;;;14.00;8.43;;;8.40;99.90;;;6.80;100.00;102568.75;2568102;30;137548;-41
2021/12/15 01:00:37;;;;;;;18.60;8.73;;;8.40;99.90;;;6.79;100.00;102558.91;2568707;30;138522;-41
2021/12/15 01:03:05;;;;;;;16.27;9.20;;;8.40;99.90;;;6.79;100.00;102559.78;2569128;30;138230;-41
2021/12/15 01:05:44;;;;;;;15.52;8.38;;;8.40;99.90;;;6.80;100.00;102564.22;2567412;30;139241;-41
2021/12/15 01:08:22;;;;;;;15.68;8.73;;;8.40;99.90;;;6.80;100.00;102563.34;2568074;30;138244;-41
2021/12/15 01:21:56;;;;;;;14.45;8.38;;;8.40;99.90;;;6.86;100.00;102577.19;2566168;30;140127;-41
2021/12/15 01:24:24;;;;;;;14.20;8.88;;;8.40;99.90;;;6.85;100.00;102569.19;2568031;30;137532;-41
2021/12/15 01:26:54;;;;;;;14.77;8.02;;;8.40;99.90;;;6.86;100.00;102573.59;2564684;30;139401;-41
2021/12/15 01:29:22;;;;;;;15.75;8.45;;;8.50;99.90;;;6.85;100.00;102580.03;2566898;30;139176;-41
2021/12/15 01:31:52;;;;;;;12.88;7.70;;;8.40;99.90;;;6.85;100.00;102580.03;2568648;30;137489;-41
2021/12/15 01:34:20;;;;;;;18.30;7.90;;;8.40;99.90;;;6.81;100.00;102570.47;2568017;30;136963;-41
2021/12/15 01:36:48;;;;;;;15.13;8.30;;;8.40;99.90;;;6.86;100.00;102581.75;2565683;30;138018;-41
2021/12/15 01:39:16;;;;;;;15.77;7.95;;;8.50;99.90;;;6.88;100.00;102585.16;2567961;30;137464;-41
2021/12/15 01:41:47;;;;;;;13.77;8.23;;;8.50;99.90;;;6.89;100.00;102582.31;2567424;30;140673;-41
2021/12/15 01:46:59;;;;;;;13.38;7.60;;;8.50;99.90;;;6.92;100.00;102570.34;2568114;30;137596;-41
2021/12/15 01:49:38;;;;;;;11.73;7.28;;;8.50;99.90;;;6.96;100.00;102577.19;2567982;30;138063;-41
2021/12/15 01:52:31;;;;;;;;;;;8.50;99.90;;;6.96;100.00;102571.75;2567111;30;140259;-41
2021/12/15 01:55:11;;;;;;;14.75;7.28;;;8.50;99.90;;;6.97;100.00;102581.59;2567188;30;137294;-41
2021/12/15 01:57:42;;;;;;;14.63;7.97;;;8.50;99.90;;;7.03;100.00;102580.16;2567843;30;138527;-41
2021/12/15 02:00:30;;;;;;;15.57;8.55;;;8.50;99.90;;;6.99;100.00;102581.44;2568402;30;139063;-41
2021/12/15 02:02:58;;;;;;;14.32;7.95;;;8.60;99.90;;;6.99;100.00;102576.00;2567747;30;138238;-41
2021/12/15 02:05:30;;;;;;;16.15;8.52;;;8.50;99.90;;;7.01;100.00;102574.00;2567170;30;136726;-41
2021/12/15 02:08:00;;;;;;;13.93;8.25;;;8.60;99.90;;;7.04;100.00;102577.28;2568180;30;138703;-41
2021/12/15 02:10:32;;;;;;;14.38;8.55;;;8.60;99.90;;;7.02;100.00;102578.44;2567813;30;138990;-41
2021/12/15 02:13:04;;;;;;;13.93;8.10;;;8.60;99.90;;;7.07;100.00;102580.72;2568688;30;140019;-41
2021/12/15 02:15:39;;;;;;;13.48;7.72;;;8.60;99.90;;;7.07;100.00;102583.44;2567893;30;138166;-41
2021/12/15 02:18:12;;;;;;;16.02;9.00;;;8.60;99.90;;;7.10;100.00;102583.13;2567800;30;138905;-41
2021/12/15 02:20:55;;;;;;;15.32;8.05;;;8.60;99.90;;;7.14;100.00;102589.97;2568310;30;140442;-42
2021/12/15 02:23:32;;;;;;;15.10;7.65;;;8.70;99.90;;;7.19;100.00;102583.13;2567519;30;137388;-41
2021/12/15 02:26:04;;;;;;;15.00;8.75;;;8.70;99.90;;;7.17;100.00;102584.28;2568094;30;136946;-41
2021/12/15 02:28:32;;;;;;;14.70;8.63;;;8.70;99.90;;;7.23;100.00;102580.09;2565470;30;138263;-41
2021/12/15 02:31:16;;;;;;;15.23;8.30;;;8.70;99.90;;;7.19;100.00;102577.69;2566711;30;137324;-41
2021/12/15 02:34:09;;;;;;;16.00;8.40;;;8.70;99.90;;;7.15;100.00;102584.41;2567778;30;137111;-41
2021/12/15 02:39:23;;;;;;;14.00;7.90;;;8.70;99.90;;;7.06;100.00;102577.16;2564752;30;140025;-41
2021/12/15 02:41:51;;;;;;;13.70;7.80;;;8.60;99.90;;;7.05;100.00;102581.72;2567198;30;138979;-41
2021/12/15 02:44:23;;;;;;;16.77;8.23;;;8.60;99.90;;;7.07;100.00;102583.44;2567085;30;140686;-41
2021/12/15 02:46:54;;;;;;;16.95;8.85;;;8.60;99.90;;;7.05;100.00;102576.28;2568028;30;137015;-42
2021/12/15 02:49:27;;;;;;;19.40;8.68;;;8.60;99.90;;;7.07;100.00;102580.72;2566301;30;138012;-41
2021/12/15 02:51:59;;;;;;;15.95;8.18;;;8.60;99.90;;;7.04;100.00;102579.16;2568325;30;137153;-41
2021/12/15 02:54:27;;;;;;;14.10;7.95;;;8.60;99.90;;;7.05;100.00;102580.88;2566398;30;138204;-41
2021/12/15 02:57:03;;;;;;;13.73;8.15;;;8.60;99.90;;;7.05;100.00;102579.00;2567352;30;137597;-41
2021/12/15 02:59:44;;;;;;;13.90;7.90;;;8.60;99.90;;;7.03;100.00;102574.75;2568922;30;139145;-41
2021/12/15 03:02:41;;;;;;;14.75;7.80;;;8.60;99.90;;;7.03;100.00;102570.16;2567662;30;137108;-41
2021/12/15 03:05:20;;;;;;;15.77;8.70;;;8.60;99.90;;;7.02;100.00;102573.00;2566388;30;138228;-41
2021/12/15 03:08:22;;;;;;;14.23;8.05;;;8.60;99.90;;;7.02;100.00;102571.16;2567547;30;138237;-41
2021/12/15 03:16:25;;;;;;;15.68;8.10;;;8.60;99.90;;;7.07;100.00;102570.72;2566004;30;138264;-41
2021/12/15 03:18:52;;;;;;;15.32;8.27;;;8.60;99.90;;;7.04;100.00;102569.16;2567854;30;137564;-40
2021/12/15 03:21:25;;;;;;;;;;;8.60;99.90;;;7.07;100.00;102575.28;2570287;30;138315;-41
2021/12/15 03:24:02;;;;;;;14.88;7.78;;;8.60;99.90;;;7.08;100.00;102579.72;2566874;30;137766;-41
2021/12/15 03:26:41;;;;;;;15.85;7.65;;;8.60;99.90;;;7.08;100.00;102574.28;2568236;30;138230;-41
2021/12/15 03:41:44;;;;;;;16.25;7.07;;;8.70;99.90;;;7.17;100.00;102573.41;2570539;30;137261;-38
2021/12/15 03:44:12;;;;;;;;;;;8.70;99.90;;;7.17;100.00;102574.25;2570149;30;138131;-38
2021/12/15 03:46:39;;;;;;;13.57;7.53;;;8.70;99.90;;;7.22;100.00;102575.69;2569579;30;137376;-38
2021/12/15 03:49:07;;;;;;;15.43;7.80;;;8.80;99.90;;;7.20;100.00;102582.09;2570379;30;137563;-38
2021/12/15 03:51:35;;;;;;;13.32;7.05;;;8.70;99.90;;;7.16;100.00;102577.09;2568446;30;138786;-38
2021/12/15 03:54:04;;;;;;;13.70;7.63;;;8.70;99.90;;;7.11;100.00;102568.56;2570637;30;136974;-38
2021/12/15 03:56:35;;;;;;;14.77;8.02;;;8.70;99.90;;;7.15;100.00;102575.41;2568719;30;138414;-38
2021/12/15 03:59:04;;;;;;;14.90;7.68;;;8.70;99.90;;;7.15;100.00;102587.13;2568561;30;137539;-38
2021/12/15 04:01:32;;;;;;;16.95;8.55;;;8.70;99.90;;;7.20;100.00;102583.97;2569923;30;138112;-38
2021/12/15 04:04:01;;;;;;;13.52;7.68;;;8.70;99.90;;;7.18;100.00;102591.41;2570254;30;137147;-38
2021/12/15 04:06:36;;;;;;;14.32;7.55;;;8.70;99.90;;;7.15;100.00;102587.13;2567960;30;138874;-38
2021/12/15 04:09:11;;;;;;;14.45;7.95;;;8.70;99.90;;;7.24;100.00;102589.97;2569305;30;137029;-38
2021/12/15 04:11:40;;;;;;;17.45;7.70;;;8.70;99.90;;;7.20;100.00;102594.84;2569733;30;138909;-38
2021/12/15 04:14:19;;;;;;;16.85;8.50;;;8.80;99.90;;;7.16;100.00;102593.41;2570644;30;136685;-38
2021/12/15 04:17:02;;;;;;;15.65;8.73;;;8.70;99.90;;;7.13;100.00;102588.25;2570495;30;139129;-38
2021/12/15 04:19:32;;;;;;;18.45;8.52;;;8.70;99.90;;;7.15;100.00;102591.69;2572241;30;138283;-38
2021/12/15 04:22:00;;;;;;;16.50;8.48;;;8.70;99.90;;;7.13;100.00;102596.41;2570744;30;138252;-38
2021/12/15 04:24:28;;;;;;;13.95;7.65;;;8.70;99.90;;;7.11;100.00;102595.69;2569095;30;136713;-38
2021/12/15 04:26:59;;;;;;;16.75;8.43;;;8.70;99.90;;;7.13;100.00;102589.13;2567669;30;138779;-38
2021/12/15 04:29:29;;;;;;;17.60;8.50;;;8.70;99.90;;;7.09;100.00;102582.28;2570594;30;137511;-38
2021/12/15 04:32:11;;;;;;;18.23;8.45;;;8.70;99.90;;;7.15;100.00;102586.25;2569486;30;138187;-38
2021/12/15 04:34:38;;;;;;;16.60;8.18;;;8.70;99.90;;;7.02;100.00;102582.00;2570295;30;137869;-38
2021/12/15 04:37:06;;;;;;;15.02;8.15;;;8.70;99.90;;;7.09;100.00;102592.28;2566765;30;138400;-38
2021/12/15 04:39:33;;;;;;;17.90;8.27;;;8.70;99.90;;;7.10;100.00;102599.41;2571182;30;138126;-37
2021/12/15 04:42:01;;;;;;;17.17;7.70;;;8.70;99.90;;;7.07;100.00;102597.88;2567620;30;138911;-38
2021/12/15 04:44:33;;;;;;;17.38;7.85;;;8.60;99.90;;;7.08;100.00;102604.13;2567329;30;138873;-38
2021/12/15 04:47:09;;;;;;;17.20;8.18;;;8.60;99.90;;;7.02;100.00;102595.59;2567386;30;139367;-38
2021/12/15 04:49:45;;;;;;;13.73;7.80;;;8.60;99.90;;;6.97;100.00;102595.16;2570995;30;137676;-38
2021/12/15 04:52:15;;;;;;;13.85;7.40;;;8.60;99.90;;;7.04;100.00;102603.59;2568293;30;138277;-38
2021/12/15 04:54:44;;;;;;;14.80;7.80;;;8.60;99.90;;;7.01;100.00;102602.00;2567124;30;137456;-38
2021/12/15 04:57:16;;;;;;;13.80;6.90;;;8.60;99.90;;;7.03;100.00;102604.59;2568183;30;138730;-38
2021/12/15 04:59:44;;;;;;;18.13;7.97;;;8.60;99.90;;;7.05;100.00;102599.88;2570425;30;137423;-38
2021/12/15 05:02:17;;;;;;;14.32;7.13;;;8.60;99.90;;;7.02;100.00;102594.72;2568433;30;138008;-38
2021/12/15 05:04:46;;;;;;;14.13;7.10;;;8.60;99.90;;;7.03;100.00;102605.44;2569897;30;137023;-38
2021/12/15 05:07:14;;;;;;;13.02;6.63;;;8.60;99.90;;;7.03;100.00;102605.44;2569939;30;138247;-38
2021/12/15 05:09:43;;;;;;;12.90;6.80;;;8.60;99.90;;;7.01;100.00;102607.44;2568490;30;137356;-38
2021/12/15 05:12:11;;;;;;;14.40;7.30;;;8.60;99.90;;;7.04;100.00;102612.56;2571443;30;137823;-38
2021/12/15 05:14:39;;;;;;;13.55;7.32;;;8.60;99.90;;;6.99;100.00;102608.56;2566758;30;137646;-38
2021/12/15 05:17:06;;;;;;;11.85;7.30;;;8.60;99.90;;;6.98;100.00;102610.44;2569874;30;139107;-38
2021/12/15 05:19:34;;;;;;;12.50;7.35;;;8.50;99.90;;;6.97;100.00;102602.44;2569390;30;137484;-38
2021/12/15 05:22:05;;;;;;;;;;;8.60;99.90;;;7.05;100.00;102614.28;2568564;30;138271;-38
2021/12/15 05:24:32;;;;;;;12.57;6.55;;;8.60;99.90;;;7.08;100.00;102617.72;2568519;30;139441;-38
2021/12/15 05:27:16;;;;;;;12.40;6.35;;;8.60;99.90;;;7.08;100.00;102626.72;2566107;30;138263;-38
2021/12/15 05:29:47;;;;;;;14.13;7.25;;;8.60;99.90;;;7.02;100.00;102620.00;2568524;30;136626;-38
2021/12/15 05:32:18;;;;;;;12.68;6.78;;;8.60;99.90;;;7.06;100.00;102620.59;2570361;30;136790;-38
2021/12/15 05:34:49;;;;;;;15.93;7.60;;;8.60;99.90;;;7.07;100.00;102629.56;2568391;30;137722;-38
2021/12/15 05:37:21;;;;;;;12.95;7.07;;;8.60;99.90;;;7.04;100.00;102618.00;2571001;30;137916;-38
2021/12/15 05:39:52;;;;;;;14.85;7.00;;;8.60;99.90;;;7.02;100.00;102620.00;2569625;30;138493;-38
2021/12/15 05:42:22;;;;;;;14.00;7.30;;;8.60;99.90;;;7.07;100.00;102624.13;2569327;30;138165;-38
2021/12/15 05:44:51;;;;;;;13.65;6.57;;;8.60;99.90;;;7.00;100.00;102619.31;2568581;30;136839;-38
2021/12/15 05:47:21;;;;;;;15.85;7.13;;;8.60;99.90;;;7.01;100.00;102621.00;2568706;30;137071;-38
2021/12/15 05:49:50;;;;;;;12.50;6.75;;;8.60;99.90;;;7.01;100.00;102615.59;2569914;30;138440;-38
2021/12/15 05:52:18;;;;;;;15.25;7.38;;;8.60;99.90;;;7.03;100.00;102629.88;2569872;30;139050;-38
2021/12/15 05:54:47;;;;;;;15.18;7.10;;;8.60;99.90;;;7.00;100.00;102624.72;2568438;30;137078;-38
2021/12/15 05:57:14;;;;;;;12.52;6.65;;;8.60;99.90;;;7.02;100.00;102622.72;2569286;30;138180;-38
2021/12/15 05:59:42;;;;;;;13.60;6.75;;;8.50;99.90;;;7.02;100.00;102627.28;2569282;30;137676;-38
2021/12/15 06:02:09;;;;;;;12.38;6.60;;;8.60;99.90;;;6.99;100.00;102625.72;2567890;30;139352;-38
2021/12/15 06:04:37;;;;;;;13.82;6.50;;;8.60;99.90;;;6.99;100.00;102633.00;2570069;30;137469;-38
2021/12/15 06:07:08;;;;;;;10.80;6.32;;;8.50;99.90;;;6.95;100.00;102632.44;2568747;30;139038;-38
2021/12/15 06:09:36;;;;;;;12.00;6.68;;;8.50;99.90;;;6.93;100.00;102631.75;2569089;30;136616;-38
2021/12/15 06:12:05;;;;;;;11.77;6.38;;;8.50;99.90;;;6.99;100.00;102639.31;2570398;30;138609;-45
2021/12/15 06:14:33;;;;;;;13.07;7.13;;;8.50;99.90;;;6.98;100.00;102644.84;2567663;30;137551;-38
2021/12/15 06:17:07;;;;;;;14.00;6.95;;;8.50;99.90;;;6.99;100.00;102633.00;2569142;30;137319;-39
2021/12/15 06:19:35;;;;;;;11.93;7.18;;;8.50;99.90;;;6.97;100.00;102637.72;2568927;30;137363;-38
2021/12/15 06:22:06;;;;;;;10.95;6.40;;;8.50;99.90;;;6.95;100.00;102639.72;2567011;30;138287;-38
2021/12/15 06:24:36;;;;;;;12.63;7.22;;;8.50;99.90;;;6.96;100.00;102634.16;2569439;30;136974;-38
2021/12/15 06:27:10;;;;;;;11.43;6.50;;;8.50;99.90;;;6.96;100.00;102634.16;2568064;30;138469;-38
2021/12/15 06:29:38;;;;;;;14.05;7.68;;;8.50;99.90;;;6.98;100.00;102640.31;2571113;30;137481;-38
2021/12/15 06:32:06;;;;;;;12.57;6.97;;;8.50;99.90;;;6.96;100.00;102647.72;2567650;30;137512;-38
2021/12/15 06:34:33;;;;;;;12.18;6.72;;;8.50;99.90;;;6.94;100.00;102652.44;2566741;30;137604;-38
2021/12/15 06:37:01;;;;;;;14.73;7.25;;;8.50;99.90;;;6.97;100.00;102649.44;2568559;30;138243;-38
2021/12/15 06:39:30;;;;;;;13.38;7.72;;;8.50;99.90;;;7.05;100.00;102657.72;2568653;30;138313;-38
2021/12/15 06:41:57;;;;;;;12.95;7.25;;;8.60;99.90;;;7.00;100.00;102654.59;2569126;30;139135;-38
2021/12/15 06:44:25;;;;;;;14.82;8.05;;;8.50;99.90;;;6.97;100.00;102657.59;2564632;30;138175;-38
2021/12/15 07:00:29;;;;;;;15.95;8.90;;;8.50;99.90;;;6.89;100.00;102658.28;2568634;30;137401;-38
2021/12/15 07:02:59;;;;;;;16.85;8.98;;;8.50;99.90;;;6.88;100.00;102661.13;2570154;30;138160;-38
2021/12/15 07:05:31;;;;;;;15.07;8.25;;;8.50;99.90;;;6.92;100.00;102657.16;2566921;30;137405;-38
2021/12/15 07:08:01;;;;;;;17.60;8.98;;;8.50;99.90;;;6.93;100.00;102656.16;2568627;30;138264;-38
2021/12/15 07:10:32;;;;;;;15.05;8.75;;;8.50;99.90;;;6.98;100.00;102659.31;2566371;30;137195;-38
2021/12/15 07:13:01;;;;;;;17.27;9.35;;;8.50;99.90;;;6.99;100.00;102671.88;2568593;30;136777;-38
2021/12/15 07:15:30;;;;;;;17.48;9.55;;;8.50;99.90;;;6.97;100.00;102664.84;2565071;30;137448;-38
2021/12/15 07:18:03;;;;;;;16.15;9.07;;;8.60;99.90;;;6.97;100.00;102671.16;2569240;30;137367;-39
2021/12/15 07:23:04;;;;;;;18.08;9.20;;;8.50;99.90;;;7.00;100.00;102673.59;2568636;30;138245;-38
2021/12/15 07:25:32;;;;;;;17.55;9.10;;;8.60;99.90;;;6.98;100.00;102674.72;2568141;30;138644;-38
2021/12/15 07:28:00;;;;;;;18.40;9.77;;;8.50;99.90;;;6.96;100.00;102679.44;2568932;30;139278;-38
2021/12/15 07:30:28;;;;;;;;;;;8.50;99.90;;;6.95;100.00;102675.00;2567802;30;137646;-39
2021/12/15 07:32:56;;;;;;;16.63;8.63;;;8.50;99.90;;;6.97;100.00;102681.13;2568243;30;137452;-38
2021/12/15 07:35:26;;;;;;;17.83;8.88;;;8.50;99.90;;;6.95;100.00;102683.13;2570861;30;136792;-38
2021/12/15 07:37:54;;;;;;;16.70;9.48;;;8.50;99.90;;;7.00;100.00;102681.72;2568842;30;137554;-38
2021/12/15 07:40:24;;;;;;;;;;;8.50;99.90;;;7.00;100.00;102681.72;2569362;30;137971;-38
2021/12/15 07:43:11;;;;;;;15.10;8.50;;;8.50;99.90;;;7.00;100.00;102683.56;2569442;30;137725;-38
2021/12/15 07:45:50;;;;;;;14.13;8.45;;;8.60;99.90;;;7.01;100.00;102686.16;2567114;30;138420;-38
2021/12/15 07:48:21;;;;;;;17.27;9.55;;;8.60;99.90;;;6.98;100.00;102700.00;2568338;30;138162;-38
2021/12/15 07:50:55;;;;;;;16.88;9.77;;;8.60;99.90;;;7.03;100.00;102694.16;2565357;30;137135;-38
2021/12/15 07:53:23;;;;;;;16.60;9.23;;;8.60;99.90;;;7.02;100.00;102689.69;2568145;30;137992;-38
2021/12/15 07:55:52;;;;;;;15.98;8.73;;;8.60;99.90;;;7.04;100.00;102696.72;2569708;30;138377;-38
2021/12/15 07:58:23;;;;;;;18.27;9.35;;;8.60;99.90;;;7.09;100.00;102700.84;2569532;30;139359;-38
2021/12/15 08:00:52;;;;;;;17.23;8.90;;;8.60;99.90;;;7.08;100.00;102702.72;2568793;30;137494;-38
2021/12/15 08:03:21;;;;;;;14.40;8.15;;;8.60;99.90;;;7.10;100.00;102703.44;2570449;30;138884;-38
2021/12/15 08:05:51;;;;;;;16.10;8.27;;;8.60;99.90;;;7.12;100.00;102697.84;2570088;30;137348;-38
2021/12/15 08:08:20;;;;;;;16.63;8.80;;;8.70;99.90;;;7.15;100.00;102706.56;2568602;30;138352;-38
2021/12/15 08:10:53;;;;;;;17.35;9.07;;;8.70;99.90;;;7.16;100.00;102708.28;2570758;30;136963;-38
2021/12/15 08:13:21;;;;;;;16.02;8.32;;;8.70;99.90;;;7.13;100.00;102707.69;2569152;30;138450;-38
2021/12/15 08:15:48;;;;;;;14.52;8.40;;;8.70;99.90;;;7.24;100.00;102707.56;2569180;30;136894;-38
2021/12/15 08:18:17;;;;;;;16.27;9.07;;;8.70;99.90;;;7.20;100.00;102704.28;2567028;30;138400;-38
2021/12/15 08:20:44;;;;;;;15.13;8.38;;;8.70;99.90;;;7.23;100.00;102702.28;2568668;30;137531;-38
2021/12/15 08:23:12;;;;;;;13.82;8.43;;;8.80;99.90;;;7.19;100.00;102699.00;2570922;30;137077;-38
2021/12/15 08:25:41;;;;;;;15.35;8.57;;;8.80;99.90;;;7.24;100.00;102701.28;2568692;30;137269;-38
2021/12/15 08:28:11;;;;;;;14.70;8.40;;;8.80;99.90;;;7.20;100.00;102708.88;2566960;30;138484;-38
2021/12/15 08:30:41;;;;;;;13.73;8.07;;;8.70;99.90;;;7.18;100.00;102706.28;2568520;30;137723;-38
2021/12/15 08:33:16;;;;;;;16.13;9.50;;;8.80;99.90;;;7.26;100.00;102716.44;2568474;30;138505;-38
2021/12/15 08:35:56;;;;;;;15.93;9.07;;;8.70;99.90;;;7.20;100.00;102712.41;2568759;30;137269;-38
2021/12/15 08:38:32;;;;;;;13.68;8.68;;;8.70;99.90;;;7.26;100.00;102716.44;2570183;30;138428;-38
2021/12/15 08:41:06;;;;;;;16.50;9.05;;;8.80;99.90;;;7.26;100.00;102712.84;2569511;30;137584;-38
2021/12/15 08:43:35;;;;;;;16.27;8.57;;;8.80;99.90;;;7.30;100.00;102720.56;2569333;30;138908;-38
2021/12/15 08:46:14;;;;;;;14.70;9.10;;;8.80;99.90;;;7.36;100.00;102716.41;2570524;30;137701;-38
2021/12/15 08:48:44;;;;;;;17.10;9.50;;;8.80;99.90;;;7.35;100.00;102725.56;2569476;30;137046;-38
2021/12/15 08:51:18;;;;;;;14.95;8.43;;;8.90;99.90;;;7.36;100.00;102723.69;2568671;30;136871;-38
2021/12/15 08:53:46;;;;;;;16.45;9.93;;;8.90;99.90;;;7.43;100.00;102720.25;2570152;30;139176;-38
2021/12/15 08:56:14;;;;;;;13.13;7.90;;;8.90;99.90;;;7.41;100.00;102716.84;2569448;30;137368;-38
2021/12/15 08:58:42;;;;;;;14.27;8.55;;;8.90;99.90;;;7.39;100.00;102723.41;2570330;30;139120;-38
2021/12/15 09:01:09;;;;;;;14.98;8.57;;;8.90;99.90;;;7.41;100.00;102726.81;2571502;30;137439;-38
2021/12/15 09:03:40;;;;;;;13.88;8.40;;;8.90;99.90;;;7.40;100.00;102728.69;2567911;30;138334;-38
2021/12/15 09:06:09;;;;;;;14.57;8.60;;;8.90;99.90;;;7.40;100.00;102723.28;2568381;30;137754;-39
2021/12/15 09:08:38;;;;;;;14.95;8.90;;;8.90;99.90;;;7.46;100.00;102728.13;2568600;30;138562;-38
2021/12/15 09:11:11;;;;;;;15.75;8.90;;;9.00;99.90;;;7.49;100.00;102729.69;2569001;30;137183;-38
2021/12/15 09:13:41;;;;;;;14.55;7.90;;;9.00;99.90;;;7.41;100.00;102721.41;2568556;30;137418;-38
2021/12/15 09:16:11;;;;;;;13.05;7.45;;;9.00;99.90;;;7.43;100.00;102724.84;2569547;30;137360;-38
2021/12/15 09:18:43;;;;;;;13.02;8.15;;;8.90;99.90;;;7.49;100.00;102724.25;2570462;30;138259;-38
2021/12/15 09:21:15;;;;;;;14.50;8.85;;;9.00;99.90;;;7.47;100.00;102726.28;2568543;30;138194;-38
2021/12/15 09:23:42;;;;;;;14.13;8.80;;;9.00;99.90;;;7.52;100.00;102731.25;2567930;30;137723;-38
2021/12/15 09:26:10;;;;;;;;;;;9.00;99.90;;;7.45;100.00;102731.00;2565972;30;136885;-38
2021/12/15 09:28:38;;;;;;;14.13;8.57;;;9.00;99.90;;;7.49;100.00;102730.53;2570358;30;137070;-39
2021/12/15 09:31:09;;;;;;;13.90;8.63;;;9.00;99.90;;;7.51;100.00;102744.00;2570456;30;137378;-38
2021/12/15 09:33:41;;;;;;;14.25;8.55;;;9.00;99.90;;;7.61;100.00;102735.81;2568704;30;138953;-37
2021/12/15 09:36:13;;;;;;;13.82;8.43;;;9.10;99.90;;;7.57;100.00;102745.28;2568274;30;137465;-38
2021/12/15 09:38:45;;;;;;;14.80;9.15;;;9.10;99.90;;;7.59;100.00;102741.41;2569282;30;137427;-38
2021/12/15 09:41:18;;;;;;;14.52;8.57;;;9.10;99.90;;;7.53;100.00;102732.97;2577990;30;138305;-41
2021/12/15 09:43:49;;;;;;;15.20;8.57;;;9.10;99.90;;;7.63;100.00;102748.25;2567613;30;138196;-41
2021/12/15 09:57:35;;;;;;;13.60;8.68;;;9.30;99.90;;;7.71;100.00;102752.94;2567416;30;137431;-41
2021/12/15 10:03:00;;;;;;;15.25;9.35;;;9.30;99.90;;;7.73;100.00;102759.09;2567470;30;137101;-41
2021/12/15 10:19:46;;;;;;;15.60;9.05;;;9.40;99.90;;;7.90;100.00;102754.75;2567930;30;137108;-41
2021/12/15 10:22:47;;;;;;;17.15;9.77;;;9.40;99.90;;;7.91;100.00;102750.19;2567866;30;138465;-41
2021/12/15 10:25:17;;;;;;;18.90;10.07;;;9.40;99.90;;;7.96;100.00;102755.19;2568339;30;137011;-41
2021/12/15 10:27:50;;;;;;;16.42;9.57;;;9.40;99.90;;;7.96;100.00;102752.47;2568306;30;138184;-41
2021/12/15 10:30:44;;;;;;;15.75;9.18;;;9.40;99.90;;;8.01;100.00;102740.13;2566081;30;137364;-41
2021/12/15 10:33:21;;;;;;;16.52;9.27;;;9.50;99.90;;;8.04;100.00;102742.56;2565086;30;137121;-41
2021/12/15 10:36:04;;;;;;;17.02;9.18;;;9.50;99.90;;;8.09;100.00;102741.25;2567822;30;136979;-41
2021/12/15 10:38:41;;;;;;;15.05;8.15;;;9.60;99.90;;;8.12;100.00;102757.28;2568372;30;137888;-41
2021/12/15 10:41:23;;;;;;;17.10;9.27;;;9.60;99.90;;;8.13;100.00;102754.41;2567692;30;137093;-41
2021/12/15 10:44:21;;;;;;;17.48;10.13;;;9.60;99.90;;;8.11;100.00;102750.97;2568772;30;138357;-41
2021/12/15 10:46:50;;;;;;;18.38;9.65;;;9.60;99.90;;;8.17;100.00;102752.25;2567762;30;137015;-41
2021/12/15 10:49:29;;;;;;;17.65;9.88;;;9.60;99.90;;;8.18;100.00;102754.81;2567498;30;137364;-41
2021/12/15 10:52:08;;;;;;;17.38;9.23;;;9.60;99.90;;;8.19;100.00;102758.41;2567569;30;136708;-41
2021/12/15 10:54:51;;;;;;;17.58;9.35;;;9.70;99.90;;;8.21;100.00;102750.94;2567604;30;138213;-41
2021/12/15 10:57:38;;;;;;;17.48;9.88;;;9.70;99.90;;;8.26;100.00;102753.22;2566174;30;138572;-41
2021/12/15 11:00:18;;;;;;;20.48;9.60;;;9.70;99.90;;;8.29;100.00;102747.47;2567023;30;138515;-41
2021/12/15 11:02:47;;;;;;;15.65;8.85;;;9.80;99.90;;;8.29;100.00;102752.91;2568466;30;137117;-41
2021/12/15 11:05:22;;;;;;;16.10;9.73;;;9.80;99.90;;;8.28;100.00;102748.50;2566516;30;138392;-41
2021/12/15 11:07:55;;;;;;;17.30;8.98;;;9.80;99.90;;;8.29;100.00;102752.91;2565682;30;137244;-41
2021/12/15 11:10:37;;;;;;;17.13;9.30;;;9.80;99.90;;;8.35;100.00;102742.31;2567549;30;138711;-41
2021/12/15 11:13:15;;;;;;;15.32;9.15;;;9.80;99.90;;;8.37;100.00;102744.84;2567660;30;137052;-41
2021/12/15 11:15:50;;;;;;;17.55;9.65;;;9.80;99.90;;;8.36;100.00;102754.03;2566017;30;136879;-41
2021/12/15 11:18:30;;;;;;;16.58;9.30;;;9.90;99.90;;;8.42;100.00;102753.41;2568038;30;138363;-41
2021/12/15 11:21:08;;;;;;;17.00;9.50;;;9.90;99.90;;;8.40;100.00;102751.88;2569049;30;137157;-41
2021/12/15 11:23:38;;;;;;;14.45;9.30;;;9.90;99.90;;;8.40;100.00;102758.16;2566338;30;136706;-41
2021/12/15 11:26:12;;;;;;;20.15;9.90;;;9.90;99.90;;;8.43;100.00;102757.00;2567331;30;139940;-41
2021/12/15 11:28:49;;;;;;;15.93;9.30;;;9.90;99.90;;;8.47;100.00;102747.53;2567666;30;137518;-41
2021/12/15 11:31:24;;;;;;;14.93;9.37;;;9.90;99.90;;;8.46;100.00;102754.81;2568715;30;139156;-41
2021/12/15 11:34:00;;;;;;;16.38;9.45;;;10.00;99.90;;;8.49;100.00;102749.13;2568397;30;137582;-41
2021/12/15 11:36:43;;;;;;;16.35;9.93;;;10.00;99.90;;;8.46;100.00;102749.38;2568171;30;138254;-41
2021/12/15 11:39:24;;;;;;;16.05;9.85;;;10.00;99.90;;;8.48;100.00;102744.66;2569337;30;137415;-40
2021/12/15 11:41:55;;;;;;;16.73;8.95;;;10.00;99.90;;;8.51;100.00;102745.41;2565439;30;137768;-41
2021/12/15 11:44:28;;;;;;;15.70;9.85;;;10.00;99.90;;;8.48;100.00;102741.91;2567683;30;137750;-41
2021/12/15 11:47:06;;;;;;;15.60;9.57;;;10.00;99.90;;;8.49;100.00;102748.22;2567569;30;139211;-41